Anchorage, AK (99516)

1:50 PM AKDT on August 27, 2015 (GMT -0800)
Mid Hillside De Armoun | | Change Station
CLOSE
Current Station
Personal Weather Station
Location: Anchorage, AK
Elevation: 373 ft
Nearby Weather Stations

Elev 373 ft 61.09 °N, 149.80 °W | Updated 31 seconds ago

Scattered Clouds
Scattered Clouds
65.5 °F
Feels Like 65.5 °F
N
4.0
Wind Variable Wind from West
Gusts 7.4 mph

Today
High -- | Low -- °F
--% Chance of Precip.
Yesterday
High -- | Low -- °F
Precip. -- in
6:38 AM 9:21 PM
Waxing Gibbous, 95% visible
Pressure 29.68 in
Visibility 10.0 miles
Clouds Few 7500 ft
Scattered Clouds 9000 ft
Dew Point 36 °F
Humidity 34%
Rainfall 0.00 in
Snow Depth Not available.
UV 2.0 out of 12
Pollen Not available.
Air Quality Not available.
Flu Activity Not available.
METAR PAMR 272053Z 01010KT 10SM FEW075 SCT090 19/02 A2968 RMK AO2 SLP051 T01940017 58012
Pressure 29.68 in
Visibility 10.0 miles
Clouds Few 7500 ft
Scattered Clouds 9000 ft
Dew Point 36 °F
Humidity 34%
Rainfall 0.00 in
Snow Depth Not available.
UV 2.0 out of 12
Pollen Not available.
Air Quality Not available.
Flu Activity Not available.
METAR PAMR 272053Z 01010KT 10SM FEW075 SCT090 19/02 A2968 RMK AO2 SLP051 T01940017 58012

10-Day Weather Forecast

×

Almanac

Astronomy

Aug. 27, 2015 Rise Set
Actual Time
Civil Twilight
Nautical Twilight
Astronomical Twilight
Moon
Length of Visible Light
Length of Day
Tomorrow will be .
, % of the Moon is Illuminated

Today's Extremes

State Highs State Lows

Community

WunderPhotos

Upload Photos

1,850,238 photos uploaded!

WunderBlogs® & News

Nearby

Air Quality

  Air Quality AQ Index Pollutant
Not available.

Snow Depth

Station Depth Elevation

Earthquake Activity

City Distance Mag. Time & Date
Minimum magnitude displayed is 2.5.

Coastal Water Temperatures

Place Temperature

Stations

Nearby Weather Stations

Station Location Temp. Windchill Dew Point Humidity Wind Precip. Elev Updated Type